createdAt,value
2022-10-20T00:01:21.166Z,102127.50
2022-10-20T00:03:48.909Z,102130.13
2022-10-20T00:06:20.524Z,102139.84
2022-10-20T00:08:47.892Z,102126.13
2022-10-20T00:11:17.316Z,102134.75
2022-10-20T00:13:45.548Z,102133.19
2022-10-20T00:16:13.174Z,102129.84
2022-10-20T00:18:39.922Z,102131.59
2022-10-20T00:21:27.102Z,102130.72
2022-10-20T00:23:53.709Z,102136.84
2022-10-20T00:26:25.387Z,102132.75
2022-10-20T00:28:52.390Z,102135.50
2022-10-20T00:31:20.435Z,102128.63
2022-10-20T00:33:47.306Z,102115.78
2022-10-20T00:36:16.645Z,102108.88
2022-10-20T00:38:43.778Z,102113.19
2022-10-20T00:41:13.919Z,102108.09
2022-10-20T00:43:46.080Z,102108.94
2022-10-20T00:46:15.174Z,102110.63
2022-10-20T00:48:45.271Z,102113.28
2022-10-20T00:51:15.339Z,102104.72
2022-10-20T00:53:43.080Z,102090.84
2022-10-20T00:56:09.567Z,102090.19
2022-10-20T00:58:35.863Z,102084.09
2022-10-20T01:01:02.315Z,102087.50
2022-10-20T01:03:36.568Z,102077.25
2022-10-20T01:06:03.726Z,102079.84
2022-10-20T01:08:30.319Z,102079.00
2022-10-20T01:11:11.861Z,102074.81
2022-10-20T01:13:52.465Z,102077.47
2022-10-20T01:16:46.665Z,102073.25
2022-10-20T01:19:34.725Z,102063.69
2022-10-20T01:22:22.750Z,102063.75
2022-10-20T01:24:59.846Z,102058.66
2022-10-20T01:28:12.234Z,102051.69
2022-10-20T01:30:45.803Z,102042.28
2022-10-20T01:33:24.716Z,102048.28
2022-10-20T01:35:59.552Z,102047.41
2022-10-20T01:38:33.485Z,102040.47
2022-10-20T01:41:17.506Z,102038.69
2022-10-20T01:43:46.333Z,102044.59
2022-10-20T01:46:15.558Z,102047.13
2022-10-20T01:48:42.013Z,102044.44
2022-10-20T01:51:09.678Z,102040.06
2022-10-20T01:53:36.422Z,102032.38
2022-10-20T01:56:03.800Z,102028.91
2022-10-20T01:58:55.161Z,102030.53
2022-10-20T02:01:40.712Z,102026.13
2022-10-20T02:04:09.124Z,102021.88
2022-10-20T02:07:05.770Z,102013.22
2022-10-20T02:09:39.505Z,102012.94
2022-10-20T02:12:13.432Z,102010.28
2022-10-20T02:14:40.643Z,102000.72
2022-10-20T02:17:12.398Z,102006.59
2022-10-20T02:19:40.773Z,102001.28
2022-10-20T02:22:09.573Z,101996.09
2022-10-20T02:24:39.248Z,101999.47
2022-10-20T02:27:12.121Z,101984.63
2022-10-20T02:30:01.531Z,101982.94
2022-10-20T02:32:29.729Z,101980.31
2022-10-20T02:34:56.072Z,101974.06
2022-10-20T02:37:22.416Z,101978.44
2022-10-20T02:39:48.767Z,101966.41
2022-10-20T02:42:17.177Z,101968.97
2022-10-20T02:44:43.775Z,101960.34
2022-10-20T02:47:10.085Z,101955.03
2022-10-20T02:49:36.380Z,101947.13
2022-10-20T02:52:02.716Z,101951.28
2022-10-20T02:54:29.155Z,101953.06
2022-10-20T02:56:55.615Z,101959.94
2022-10-20T02:59:22.079Z,101961.63
2022-10-20T03:01:48.496Z,101958.91
2022-10-20T03:04:15.078Z,101960.63
2022-10-20T03:06:41.599Z,101962.34
2022-10-20T03:09:07.936Z,101960.66
2022-10-20T03:11:34.531Z,101962.34
2022-10-20T03:14:00.962Z,101963.19
2022-10-20T03:16:27.354Z,101963.41
2022-10-20T03:18:53.955Z,101957.97
2022-10-20T03:21:20.487Z,101949.28
2022-10-20T03:23:47.193Z,101955.09
2022-10-20T03:26:13.617Z,101955.91
2022-10-20T03:28:40.380Z,101951.53
2022-10-20T03:31:08.304Z,101946.28
2022-10-20T03:33:35.065Z,101950.63
2022-10-20T03:36:01.543Z,101950.53
2022-10-20T03:38:28.051Z,101947.06
2022-10-20T03:40:54.450Z,101950.38
2022-10-20T03:43:20.864Z,101943.56
2022-10-20T03:45:47.290Z,101941.75
2022-10-20T03:48:13.646Z,101940.78
2022-10-20T03:50:42.152Z,101938.16
2022-10-20T03:53:12.388Z,101940.66
2022-10-20T03:55:38.721Z,101944.00
2022-10-20T03:58:05.063Z,101943.03
2022-10-20T04:00:31.401Z,101933.50
2022-10-20T04:02:57.771Z,101936.97
2022-10-20T04:05:24.055Z,101926.56
2022-10-20T04:07:50.454Z,101926.50
2022-10-20T04:10:17.738Z,101922.97
2022-10-20T04:12:44.170Z,101916.06
2022-10-20T04:15:10.698Z,101922.03
2022-10-20T04:17:37.425Z,101921.25
2022-10-20T04:20:05.001Z,101920.41
2022-10-20T04:22:31.324Z,101916.06
2022-10-20T04:24:57.787Z,101915.00
2022-10-20T04:27:24.090Z,101907.25
2022-10-20T04:29:50.462Z,101912.50
2022-10-20T04:32:16.765Z,101910.00
2022-10-20T04:34:43.106Z,101910.09
2022-10-20T04:37:09.454Z,101908.34
2022-10-20T04:39:35.782Z,101898.00
2022-10-20T04:42:02.149Z,101901.63
2022-10-20T04:44:28.450Z,101902.44
2022-10-20T04:46:55.177Z,101895.69
2022-10-20T04:49:21.605Z,101905.22
2022-10-20T04:51:47.959Z,101906.19
2022-10-20T04:54:14.406Z,101899.97
2022-10-20T04:56:40.708Z,101896.41
2022-10-20T04:59:09.641Z,101894.88
2022-10-20T05:01:39.327Z,101895.84
2022-10-20T05:04:05.793Z,101885.38
2022-10-20T05:06:33.417Z,101884.56
2022-10-20T05:09:02.636Z,101878.50
2022-10-20T05:11:31.022Z,101873.34
2022-10-20T05:13:57.745Z,101870.75
2022-10-20T05:16:24.315Z,101871.47
2022-10-20T05:18:52.219Z,101875.81
2022-10-20T05:21:21.578Z,101868.06
2022-10-20T05:23:48.403Z,101863.00
2022-10-20T05:26:18.455Z,101858.56
2022-10-20T05:28:47.416Z,101850.81
2022-10-20T05:31:15.188Z,101849.16
2022-10-20T05:33:49.700Z,101842.19
2022-10-20T05:36:21.624Z,101835.31
2022-10-20T05:38:50.560Z,101823.34
2022-10-20T05:41:19.126Z,101817.53
2022-10-20T05:43:57.163Z,101815.91
2022-10-20T05:46:25.124Z,101815.94
2022-10-20T05:48:54.204Z,101817.91
2022-10-20T05:51:24.492Z,101809.25
2022-10-20T05:53:51.715Z,101818.63
2022-10-20T05:56:20.493Z,101816.97
2022-10-20T05:58:47.648Z,101818.00
2022-10-20T06:01:24.163Z,101816.47
2022-10-20T06:03:56.343Z,101812.34
2022-10-20T06:06:25.986Z,101818.63
2022-10-20T06:08:52.487Z,101812.75
2022-10-20T06:11:19.672Z,101807.78
2022-10-20T06:13:48.619Z,101810.44
2022-10-20T06:16:24.303Z,101807.06
2022-10-20T06:18:51.152Z,101800.22
2022-10-20T06:21:23.828Z,101810.63
2022-10-20T06:23:50.998Z,101800.34
2022-10-20T06:26:22.636Z,101795.19
2022-10-20T06:28:53.493Z,101797.84
2022-10-20T06:31:25.332Z,101800.56
2022-10-20T06:33:52.817Z,101800.63
2022-10-20T06:36:21.478Z,101794.66
2022-10-20T06:38:48.537Z,101791.28
2022-10-20T06:41:16.845Z,101800.00
2022-10-20T06:43:44.719Z,101786.34
2022-10-20T06:46:13.839Z,101789.03
2022-10-20T06:48:40.329Z,101787.50
2022-10-20T06:51:10.035Z,101794.53
2022-10-20T06:53:37.217Z,101800.66
2022-10-20T06:56:07.611Z,101789.53
2022-10-20T06:58:35.433Z,101800.91
2022-10-20T07:01:05.706Z,101804.56
2022-10-20T07:03:37.047Z,101801.25
2022-10-20T07:06:05.559Z,101795.25
2022-10-20T07:08:34.024Z,101785.75
2022-10-20T07:11:09.047Z,101790.13
2022-10-20T07:13:36.827Z,101790.19
2022-10-20T07:16:04.955Z,101790.25
2022-10-20T07:18:31.681Z,101786.03
2022-10-20T07:21:00.190Z,101787.88
2022-10-20T07:23:29.049Z,101789.69
2022-10-20T07:26:04.945Z,101791.50
2022-10-20T07:28:32.372Z,101778.66
2022-10-20T07:31:06.286Z,101784.78
2022-10-20T07:33:33.163Z,101780.59
2022-10-20T07:35:59.757Z,101778.88
2022-10-20T07:38:26.147Z,101769.53
2022-10-20T07:40:52.616Z,101764.47
2022-10-20T07:43:19.645Z,101763.78
2022-10-20T07:45:45.981Z,101761.28
2022-10-20T07:48:12.387Z,101762.34
2022-10-20T07:50:40.171Z,101745.09
2022-10-20T07:53:06.526Z,101730.31
2022-10-20T07:55:38.698Z,101727.03
2022-10-20T07:58:05.718Z,101710.59
2022-10-20T08:00:32.129Z,101704.53
2022-10-20T08:02:58.614Z,101701.16
2022-10-20T08:05:24.985Z,101701.31
2022-10-20T08:07:51.312Z,101696.16
2022-10-20T08:10:18.188Z,101690.09
2022-10-20T08:12:44.504Z,101687.63
2022-10-20T08:15:13.811Z,101685.06
2022-10-20T08:17:40.104Z,101681.59
2022-10-20T08:20:11.179Z,101677.38
2022-10-20T08:22:37.836Z,101677.44
2022-10-20T08:25:04.929Z,101667.94
2022-10-20T08:27:31.279Z,101668.88
2022-10-20T08:30:06.434Z,101680.19
2022-10-20T08:32:44.287Z,101670.78
2022-10-20T08:35:10.805Z,101667.41
2022-10-20T08:37:37.635Z,101670.06
2022-10-20T08:40:04.657Z,101650.19
2022-10-20T08:42:38.110Z,101641.56
2022-10-20T08:45:04.761Z,101624.31
2022-10-20T08:47:36.831Z,101617.38
2022-10-20T08:50:06.246Z,101613.97
2022-10-20T08:52:33.248Z,101619.13
2022-10-20T08:54:59.692Z,101616.63
2022-10-20T08:57:29.318Z,101620.06
2022-10-20T09:00:21.690Z,101620.13
2022-10-20T09:02:49.860Z,101617.56
2022-10-20T09:05:27.837Z,101602.84
2022-10-20T09:07:54.801Z,101601.19
2022-10-20T09:10:35.100Z,101591.69
2022-10-20T09:13:06.436Z,101599.50
2022-10-20T09:15:32.919Z,101589.09
2022-10-20T09:18:02.834Z,101583.09
2022-10-20T09:20:34.742Z,101571.84
2022-10-20T09:23:04.349Z,101569.25
2022-10-20T09:25:35.020Z,101572.75
2022-10-20T09:28:01.377Z,101567.56
2022-10-20T09:30:30.422Z,101560.63
2022-10-20T09:32:56.945Z,101563.22
2022-10-20T09:35:32.941Z,101557.16
2022-10-20T09:38:18.596Z,101536.31
2022-10-20T09:41:02.862Z,101536.34
2022-10-20T09:43:29.235Z,101535.44
2022-10-20T09:46:03.766Z,101543.25
2022-10-20T09:48:38.492Z,101536.31
2022-10-20T09:51:07.314Z,101533.72
2022-10-20T09:53:39.311Z,101537.16
2022-10-20T09:56:06.183Z,101547.56
2022-10-20T09:58:35.005Z,101550.16
2022-10-20T10:01:16.014Z,101545.81
2022-10-20T10:03:47.616Z,101541.47
2022-10-20T10:06:39.270Z,101540.56
2022-10-20T10:09:34.057Z,101538.81
2022-10-20T10:12:02.298Z,101537.06
2022-10-20T10:14:30.386Z,101543.16
2022-10-20T10:16:57.477Z,101529.25
2022-10-20T10:19:27.705Z,101534.41
2022-10-20T10:22:00.316Z,101524.75
2022-10-20T10:24:33.117Z,101515.97
2022-10-20T10:26:59.544Z,101515.22
2022-10-20T10:29:27.886Z,101517.78
2022-10-20T10:32:15.501Z,101522.97
2022-10-20T10:35:00.472Z,101522.94
2022-10-20T10:37:29.716Z,101516.81
2022-10-20T10:39:58.699Z,101511.50
2022-10-20T10:42:43.019Z,101501.97
2022-10-20T10:45:32.441Z,101494.06
2022-10-20T10:48:25.689Z,101491.41
2022-10-20T10:50:59.599Z,101486.19
2022-10-20T10:53:51.149Z,101479.13
2022-10-20T10:56:33.247Z,101470.34
2022-10-20T10:59:11.370Z,101470.22
2022-10-20T11:01:54.784Z,101449.34
2022-10-20T11:04:39.896Z,101447.59
2022-10-20T11:07:24.992Z,101446.81
2022-10-20T11:10:07.999Z,101433.81
2022-10-20T11:12:45.231Z,101422.44
2022-10-20T11:15:29.899Z,101412.91
2022-10-20T11:18:42.336Z,101411.16
2022-10-20T11:21:34.919Z,101397.22
2022-10-20T11:24:30.600Z,101398.13
2022-10-20T11:27:03.926Z,101391.31
2022-10-20T11:29:36.277Z,101398.22
2022-10-20T11:32:14.859Z,101387.81
2022-10-20T11:34:56.735Z,101379.13
2022-10-20T11:37:27.628Z,101386.09
2022-10-20T11:40:09.214Z,101381.78
2022-10-20T11:42:50.243Z,101381.66
2022-10-20T11:45:34.322Z,101381.63
2022-10-20T11:48:20.848Z,101369.28
2022-10-20T11:51:00.651Z,101367.53
2022-10-20T11:53:42.393Z,101365.69
2022-10-20T11:56:28.026Z,101351.78
2022-10-20T11:59:16.359Z,101351.56
2022-10-20T12:02:19.061Z,101345.06
2022-10-20T12:05:23.062Z,101338.09
2022-10-20T12:08:10.993Z,101337.16
2022-10-20T12:10:59.470Z,101336.81
2022-10-20T12:13:33.229Z,101345.44
2022-10-20T12:15:59.589Z,101333.19
2022-10-20T12:18:26.480Z,101334.00
2022-10-20T12:20:56.346Z,101320.06
2022-10-20T12:23:54.544Z,101319.31
2022-10-20T12:26:29.969Z,101314.25
2022-10-20T12:28:57.713Z,101328.13
2022-10-20T12:31:25.843Z,101310.72
2022-10-20T12:33:53.240Z,101298.50
2022-10-20T12:36:19.575Z,101298.44
2022-10-20T12:38:52.322Z,101296.69
2022-10-20T12:41:34.764Z,101290.63
2022-10-20T12:44:07.112Z,101281.31
2022-10-20T12:46:37.085Z,101277.75
2022-10-20T12:49:11.025Z,101263.97
2022-10-20T12:51:48.232Z,101246.44
2022-10-20T12:54:27.077Z,101252.38
2022-10-20T12:56:59.061Z,101253.22
2022-10-20T12:59:28.103Z,101252.38
2022-10-20T13:02:09.736Z,101247.09
2022-10-20T13:04:56.031Z,101237.66
2022-10-20T13:07:52.280Z,101239.28
2022-10-20T13:10:30.983Z,101230.47
2022-10-20T13:13:03.572Z,101228.72
2022-10-20T13:15:36.193Z,101224.38
2022-10-20T13:18:26.059Z,101216.63
2022-10-20T13:21:20.399Z,101207.03
2022-10-20T13:23:54.016Z,101189.63
2022-10-20T13:26:28.674Z,101188.91
2022-10-20T13:28:58.380Z,101191.56
2022-10-20T13:31:33.388Z,101182.00
2022-10-20T13:34:21.674Z,101174.94
2022-10-20T13:37:07.330Z,101184.53
2022-10-20T13:39:39.408Z,101182.75
2022-10-20T13:42:27.469Z,101171.44
2022-10-20T13:45:11.371Z,101174.13
2022-10-20T13:47:48.047Z,101170.63
2022-10-20T13:50:21.062Z,101173.28
2022-10-20T13:52:51.786Z,101177.53
2022-10-20T13:55:29.881Z,101194.91
2022-10-20T13:58:03.145Z,101186.34
2022-10-20T14:00:31.627Z,101179.34
2022-10-20T14:02:59.891Z,101175.72
2022-10-20T14:05:36.909Z,101174.88
2022-10-20T14:08:08.250Z,101161.00
2022-10-20T14:10:56.868Z,101155.72
2022-10-20T14:13:27.972Z,101145.22
2022-10-20T14:15:59.166Z,101138.16
2022-10-20T14:18:32.215Z,101132.09
2022-10-20T14:21:16.909Z,101147.81
2022-10-20T14:23:46.004Z,101166.97
2022-10-20T14:26:23.142Z,101152.13
2022-10-20T14:28:51.514Z,101140.78
2022-10-20T14:31:22.265Z,101138.22
2022-10-20T14:33:51.314Z,101148.75
2022-10-20T14:36:29.777Z,101139.13
2022-10-20T14:39:00.525Z,101135.78
2022-10-20T14:41:32.655Z,101145.31
2022-10-20T14:44:14.768Z,101139.31
2022-10-20T14:46:49.480Z,101137.75
2022-10-20T14:49:18.804Z,101127.31
2022-10-20T14:51:55.531Z,101131.00
2022-10-20T14:54:55.760Z,101127.47
2022-10-20T14:57:25.009Z,101119.75
2022-10-20T15:00:05.915Z,101105.88
2022-10-20T15:02:43.009Z,101092.94
2022-10-20T15:05:36.439Z,101096.56
2022-10-20T15:08:21.194Z,101104.50
2022-10-20T15:10:48.035Z,101090.63
2022-10-20T15:13:25.022Z,101089.88
2022-10-20T15:15:54.301Z,101101.25
2022-10-20T15:18:21.494Z,101092.66
2022-10-20T15:20:49.169Z,101089.16
2022-10-20T15:23:19.803Z,101080.59
2022-10-20T15:26:00.297Z,101078.03
2022-10-20T15:28:46.409Z,101082.41
2022-10-20T15:31:12.647Z,101083.38
2022-10-20T15:33:42.331Z,101071.22
2022-10-20T15:36:19.467Z,101071.34
2022-10-20T15:38:46.027Z,101074.81
2022-10-20T15:41:21.659Z,101060.91
2022-10-20T15:43:48.379Z,101078.28
2022-10-20T15:46:16.715Z,101078.38
2022-10-20T15:48:43.681Z,101085.28
2022-10-20T15:51:30.990Z,101081.06
2022-10-20T15:53:57.926Z,101082.81
2022-10-20T15:56:24.672Z,101081.97
2022-10-20T15:58:51.194Z,101077.69
2022-10-20T16:01:19.248Z,101080.34
2022-10-20T16:03:46.899Z,101084.66
2022-10-20T16:06:14.821Z,101100.34
2022-10-20T16:08:45.533Z,101089.97
2022-10-20T16:11:13.443Z,101086.56
2022-10-20T16:13:40.254Z,101096.13
2022-10-20T16:16:08.545Z,101102.22
2022-10-20T16:18:35.007Z,101101.41
2022-10-20T16:21:04.429Z,101098.81
2022-10-20T16:23:30.901Z,101109.19
2022-10-20T16:25:57.406Z,101106.63
2022-10-20T16:28:23.760Z,101107.50
2022-10-20T16:30:50.084Z,101098.81
2022-10-20T16:33:16.469Z,101112.78
2022-10-20T16:35:44.046Z,101105.91
2022-10-20T16:38:10.894Z,101107.53
2022-10-20T16:40:37.269Z,101103.22
2022-10-20T16:43:03.768Z,101099.78
2022-10-20T16:45:30.134Z,101100.72
2022-10-20T16:47:56.435Z,101095.47
2022-10-20T16:50:22.802Z,101099.88
2022-10-20T16:52:49.088Z,101086.03
2022-10-20T16:55:15.486Z,101090.38
2022-10-20T16:57:41.801Z,101081.69
2022-10-20T17:00:09.016Z,101081.66
2022-10-20T17:02:36.687Z,101078.22
2022-10-20T17:05:06.672Z,101076.50
2022-10-20T17:07:35.929Z,101079.94
2022-10-20T17:10:02.420Z,101079.09
2022-10-20T17:12:28.728Z,101074.69
2022-10-20T17:14:55.029Z,101068.63
2022-10-20T17:17:21.333Z,101061.66
2022-10-20T17:19:47.666Z,101051.19
2022-10-20T17:22:13.991Z,101052.94
2022-10-20T17:24:40.298Z,101050.38
2022-10-20T17:27:06.645Z,101049.47
2022-10-20T17:29:32.949Z,101038.19
2022-10-20T17:31:59.314Z,101033.00
2022-10-20T17:34:25.648Z,101036.44
2022-10-20T17:36:51.990Z,101039.06
2022-10-20T17:39:20.383Z,101033.03
2022-10-20T17:41:46.684Z,101032.16
2022-10-20T17:44:13.124Z,101019.09
2022-10-20T17:46:51.445Z,101028.69
2022-10-20T17:49:17.853Z,101027.81
2022-10-20T17:51:44.219Z,101024.31
2022-10-20T17:54:10.553Z,101019.97
2022-10-20T17:56:39.840Z,101022.66
2022-10-20T17:59:08.265Z,101025.25
2022-10-20T18:01:40.044Z,101010.47
2022-10-20T18:04:09.713Z,101007.00
2022-10-20T18:06:37.139Z,101008.63
2022-10-20T18:09:10.785Z,101003.47
2022-10-20T18:11:38.981Z,100998.34
2022-10-20T18:14:05.908Z,101003.63
2022-10-20T18:16:34.648Z,100992.31
2022-10-20T18:19:01.425Z,100984.44
2022-10-20T18:21:29.148Z,100987.06
2022-10-20T18:23:57.597Z,100985.31
2022-10-20T18:26:24.910Z,100974.84
2022-10-20T18:28:51.653Z,100974.03
2022-10-20T18:31:22.651Z,100968.03
2022-10-20T18:33:51.482Z,100971.47
2022-10-20T18:36:18.771Z,100970.66
2022-10-20T18:38:46.348Z,100975.94
2022-10-20T18:41:18.754Z,100966.34
2022-10-20T18:43:45.791Z,100967.28
2022-10-20T18:46:13.534Z,100963.81
2022-10-20T18:48:41.206Z,100949.97
2022-10-20T18:51:09.632Z,100940.44
2022-10-20T18:53:37.516Z,100944.88
2022-10-20T18:56:05.884Z,100943.94
2022-10-20T18:58:35.072Z,100945.66
2022-10-20T19:01:05.036Z,100946.59
2022-10-20T19:03:34.220Z,100940.53
2022-10-20T19:06:08.598Z,100944.91
2022-10-20T19:08:36.966Z,100944.03
2022-10-20T19:11:05.427Z,100945.78
2022-10-20T19:13:31.753Z,100942.28
2022-10-20T19:15:59.215Z,100944.00
2022-10-20T19:18:27.496Z,100932.63
2022-10-20T19:20:58.515Z,100934.38
2022-10-20T19:23:26.062Z,100926.66
2022-10-20T19:26:16.078Z,100933.63
2022-10-20T19:28:46.368Z,100928.44
2022-10-20T19:31:37.119Z,100926.66
2022-10-20T19:34:10.941Z,100920.53
2022-10-20T19:36:37.685Z,100923.28
2022-10-20T19:39:05.763Z,100925.97
2022-10-20T19:41:32.048Z,100920.78
2022-10-20T19:43:58.643Z,100920.78
2022-10-20T19:46:25.072Z,100921.69
2022-10-20T19:48:51.736Z,100923.50
2022-10-20T19:51:20.282Z,100921.91
2022-10-20T19:53:47.627Z,100923.59
2022-10-20T19:56:14.196Z,100911.44
2022-10-20T19:58:44.102Z,100908.13
2022-10-20T20:01:12.922Z,100905.59
2022-10-20T20:03:39.295Z,100897.81
2022-10-20T20:06:18.125Z,100888.16
2022-10-20T20:08:55.522Z,100885.66
2022-10-20T20:11:27.013Z,100876.06
2022-10-20T20:13:55.554Z,100891.78
2022-10-20T20:16:22.764Z,100897.81
2022-10-20T20:18:49.160Z,100907.50
2022-10-20T20:21:16.276Z,100911.78
2022-10-20T20:23:59.901Z,100903.16
2022-10-20T20:26:29.029Z,100893.63
2022-10-20T20:28:56.331Z,100894.50
2022-10-20T20:31:23.779Z,100899.63
2022-10-20T20:33:50.421Z,100900.56
2022-10-20T20:36:17.337Z,100906.66
2022-10-20T20:38:43.813Z,100891.03
2022-10-20T20:41:17.979Z,100900.66
2022-10-20T20:43:47.211Z,100887.63
2022-10-20T20:46:16.551Z,100878.97
2022-10-20T20:48:43.724Z,100874.69
2022-10-20T20:51:11.304Z,100886.88
2022-10-20T20:53:39.165Z,100883.50
2022-10-20T20:56:11.194Z,100882.72
2022-10-20T20:58:37.909Z,100874.88
2022-10-20T21:01:10.451Z,100869.69
2022-10-20T21:03:37.046Z,100866.22
2022-10-20T21:06:11.995Z,100873.13
2022-10-20T21:08:39.902Z,100875.78
2022-10-20T21:11:14.405Z,100881.84
2022-10-20T21:13:42.641Z,100896.56
2022-10-20T21:16:16.094Z,100894.78
2022-10-20T21:18:46.001Z,100901.72
2022-10-20T21:21:15.159Z,100899.09
2022-10-20T21:23:42.119Z,100896.50
2022-10-20T21:26:09.694Z,100890.44
2022-10-20T21:28:36.506Z,100883.50
2022-10-20T21:31:07.621Z,100878.34
2022-10-20T21:33:35.934Z,100867.13
2022-10-20T21:36:04.438Z,100863.66
2022-10-20T21:38:32.273Z,100861.94
2022-10-20T21:41:12.774Z,100858.56
2022-10-20T21:43:41.385Z,100850.75
2022-10-20T21:46:16.454Z,100862.81
2022-10-20T21:48:44.578Z,100868.88
2022-10-20T21:51:25.294Z,100871.47
2022-10-20T21:54:03.277Z,100861.88
2022-10-20T21:56:32.934Z,100870.56
2022-10-20T21:58:59.244Z,100871.38
2022-10-20T22:01:25.727Z,100864.47
2022-10-20T22:03:53.578Z,100857.63
2022-10-20T22:06:23.074Z,100856.72
2022-10-20T22:08:52.286Z,100847.19
2022-10-20T22:11:22.725Z,100840.31
2022-10-20T22:13:49.602Z,100842.91
2022-10-20T22:16:18.517Z,100841.06
2022-10-20T22:18:45.249Z,100840.34
2022-10-20T22:21:17.211Z,100842.94
2022-10-20T22:23:44.598Z,100848.09
2022-10-20T22:26:12.065Z,100852.44
2022-10-20T22:28:38.523Z,100857.66
2022-10-20T22:31:06.262Z,100855.91
2022-10-20T22:33:32.892Z,100858.41
2022-10-20T22:35:59.284Z,100842.84
2022-10-20T22:38:25.650Z,100852.34
2022-10-20T22:40:51.956Z,100842.84
2022-10-20T22:43:18.231Z,100842.88
2022-10-20T22:45:44.523Z,100843.72
2022-10-20T22:48:10.829Z,100847.16
2022-10-20T22:50:37.119Z,100853.25
2022-10-20T22:53:03.470Z,100842.06
2022-10-20T22:55:29.791Z,100832.53
2022-10-20T22:57:56.195Z,100840.38
2022-10-20T23:00:22.540Z,100845.53
2022-10-20T23:02:48.868Z,100856.78
2022-10-20T23:05:15.218Z,100859.41
2022-10-20T23:07:41.571Z,100855.09
2022-10-20T23:10:08.308Z,100841.28
2022-10-20T23:12:34.767Z,100838.72
2022-10-20T23:15:01.415Z,100835.28
2022-10-20T23:17:27.838Z,100839.56
2022-10-20T23:19:54.177Z,100842.19
2022-10-20T23:22:20.492Z,100854.38
2022-10-20T23:24:47.799Z,100851.75
2022-10-20T23:27:14.276Z,100836.16
2022-10-20T23:29:40.654Z,100850.97
2022-10-20T23:32:06.972Z,100854.38
2022-10-20T23:37:00.560Z,100869.09
2022-10-20T23:39:26.918Z,100859.59
2022-10-20T23:41:53.194Z,100857.03
2022-10-20T23:44:19.482Z,100860.44
2022-10-20T23:46:45.755Z,100863.16
2022-10-20T23:49:12.229Z,100857.00
2022-10-20T23:51:38.513Z,100863.06
2022-10-20T23:54:04.923Z,100861.34
2022-10-20T23:56:31.316Z,100862.13
2022-10-20T23:58:57.654Z,100854.38
